createdAt,value
2018-07-08T00:00:14.006Z,1008.37
2018-07-08T00:00:54.554Z,1008.37
2018-07-08T00:01:35.097Z,1008.34
2018-07-08T00:02:15.619Z,1008.38
2018-07-08T00:02:56.142Z,1008.39
2018-07-08T00:03:36.649Z,1008.38
2018-07-08T00:04:17.165Z,1008.38
2018-07-08T00:04:57.689Z,1008.4
2018-07-08T00:05:38.221Z,1008.37
2018-07-08T00:06:18.738Z,1008.41
2018-07-08T00:06:59.266Z,1008.44
2018-07-08T00:07:39.797Z,1008.39
2018-07-08T00:08:20.324Z,1008.38
2018-07-08T00:09:00.843Z,1008.39
2018-07-08T00:09:41.367Z,1008.39
2018-07-08T00:10:21.888Z,1008.45
2018-07-08T00:11:02.407Z,1008.38
2018-07-08T00:11:42.932Z,1008.35
2018-07-08T00:12:23.456Z,1008.41
2018-07-08T00:13:04.007Z,1008.38
2018-07-08T00:13:45.254Z,1008.37
2018-07-08T00:14:25.782Z,1008.35
2018-07-08T00:15:06.320Z,1008.39
2018-07-08T00:15:46.863Z,1008.42
2018-07-08T00:16:27.393Z,1008.41
2018-07-08T00:17:07.929Z,1008.38
2018-07-08T00:17:48.450Z,1008.37
2018-07-08T00:18:28.970Z,1008.38
2018-07-08T00:19:09.495Z,1008.38
2018-07-08T00:19:50.023Z,1008.37
2018-07-08T00:20:30.564Z,1008.34
2018-07-08T00:21:11.093Z,1008.36
2018-07-08T00:21:51.619Z,1008.38
2018-07-08T00:22:32.148Z,1008.31
2018-07-08T00:23:12.673Z,1008.33
2018-07-08T00:23:53.222Z,1008.33
2018-07-08T00:24:33.736Z,1008.34
2018-07-08T00:25:14.266Z,1008.36
2018-07-08T00:25:54.779Z,1008.33
2018-07-08T00:26:35.322Z,1008.34
2018-07-08T00:27:15.845Z,1008.34
2018-07-08T00:27:56.356Z,1008.33
2018-07-08T00:28:36.961Z,1008.27
2018-07-08T00:29:17.465Z,1008.31
2018-07-08T00:29:57.983Z,1008.32
2018-07-08T00:30:38.504Z,1008.37
2018-07-08T00:31:19.026Z,1008.35
2018-07-08T00:31:59.553Z,1008.35
2018-07-08T00:32:40.100Z,1008.34
2018-07-08T00:33:20.622Z,1008.37
2018-07-08T00:34:01.146Z,1008.39
2018-07-08T00:34:41.666Z,1008.37
2018-07-08T00:35:22.204Z,1008.37
2018-07-08T00:36:02.754Z,1008.38
2018-07-08T00:36:43.302Z,1008.38
2018-07-08T00:37:23.847Z,1008.37
2018-07-08T00:38:04.364Z,1008.37
2018-07-08T00:38:44.890Z,1008.37
2018-07-08T00:39:25.449Z,1008.37
2018-07-08T00:40:05.946Z,1008.35
2018-07-08T00:40:46.478Z,1008.38
2018-07-08T00:41:26.996Z,1008.35
2018-07-08T00:42:07.515Z,1008.4
2018-07-08T00:42:48.077Z,1008.37
2018-07-08T00:43:28.593Z,1008.37
2018-07-08T00:44:09.114Z,1008.37
2018-07-08T00:44:49.642Z,1008.37
2018-07-08T00:45:30.161Z,1008.35
2018-07-08T00:46:10.684Z,1008.38
2018-07-08T00:46:51.213Z,1008.35
2018-07-08T00:47:31.733Z,1008.36
2018-07-08T00:48:12.256Z,1008.33
2018-07-08T00:48:52.780Z,1008.35
2018-07-08T00:49:33.312Z,1008.35
2018-07-08T00:50:13.842Z,1008.32
2018-07-08T00:50:54.358Z,1008.31
2018-07-08T00:51:34.879Z,1008.32
2018-07-08T00:52:15.421Z,1008.37
2018-07-08T00:52:55.956Z,1008.35
2018-07-08T00:53:36.491Z,1008.32
2018-07-08T00:54:17.012Z,1008.28
2018-07-08T00:54:57.542Z,1008.29
2018-07-08T00:55:38.077Z,1008.31
2018-07-08T00:56:18.611Z,1008.28
2018-07-08T00:56:59.134Z,1008.25
2018-07-08T00:57:39.642Z,1008.3
2018-07-08T00:58:20.177Z,1008.31
2018-07-08T00:59:00.715Z,1008.29
2018-07-08T00:59:41.240Z,1008.33
2018-07-08T01:00:21.762Z,1008.31
2018-07-08T01:01:02.278Z,1008.31
2018-07-08T01:01:42.831Z,1008.33
2018-07-08T01:02:23.385Z,1008.35
2018-07-08T01:03:03.917Z,1008.36
2018-07-08T01:03:44.425Z,1008.34
2018-07-08T01:04:25.936Z,1008.35
2018-07-08T01:05:06.489Z,1008.34
2018-07-08T01:05:47.015Z,1008.31
2018-07-08T01:06:27.536Z,1008.32
2018-07-08T01:07:08.073Z,1008.36
2018-07-08T01:07:48.617Z,1008.32
2018-07-08T01:08:29.139Z,1008.37
2018-07-08T01:09:09.685Z,1008.36
2018-07-08T01:09:50.194Z,1008.39
2018-07-08T01:10:30.716Z,1008.41
2018-07-08T01:11:11.257Z,1008.36
2018-07-08T01:11:51.779Z,1008.41
2018-07-08T01:12:32.321Z,1008.43
2018-07-08T01:13:12.839Z,1008.43
2018-07-08T01:13:53.351Z,1008.44
2018-07-08T01:14:33.868Z,1008.44
2018-07-08T01:15:14.380Z,1008.41
2018-07-08T01:15:54.905Z,1008.43
2018-07-08T01:16:35.436Z,1008.45
2018-07-08T01:17:15.972Z,1008.45
2018-07-08T01:17:56.494Z,1008.43
2018-07-08T01:18:37.011Z,1008.42
2018-07-08T01:19:17.531Z,1008.43
2018-07-08T01:19:58.057Z,1008.46
2018-07-08T01:20:38.571Z,1008.44
2018-07-08T01:21:19.096Z,1008.45
2018-07-08T01:21:59.614Z,1008.44
2018-07-08T01:22:40.699Z,1008.44
2018-07-08T01:23:21.234Z,1008.43
2018-07-08T01:24:01.757Z,1008.42
2018-07-08T01:24:42.272Z,1008.4
2018-07-08T01:25:22.810Z,1008.4
2018-07-08T01:26:03.336Z,1008.39
2018-07-08T01:26:43.848Z,1008.39
2018-07-08T01:27:24.380Z,1008.43
2018-07-08T01:28:04.908Z,1008.4
2018-07-08T01:28:45.427Z,1008.41
2018-07-08T01:29:25.946Z,1008.41
2018-07-08T01:30:06.472Z,1008.44
2018-07-08T01:30:46.994Z,1008.46
2018-07-08T01:31:27.517Z,1008.42
2018-07-08T01:32:08.029Z,1008.46
2018-07-08T01:32:48.545Z,1008.4
2018-07-08T01:33:29.061Z,1008.41
2018-07-08T01:34:09.579Z,1008.47
2018-07-08T01:34:50.104Z,1008.45
2018-07-08T01:35:30.628Z,1008.43
2018-07-08T01:36:11.169Z,1008.46
2018-07-08T01:36:51.675Z,1008.44
2018-07-08T01:37:32.197Z,1008.45
2018-07-08T01:38:12.740Z,1008.43
2018-07-08T01:38:53.275Z,1008.43
2018-07-08T01:39:33.794Z,1008.43
2018-07-08T01:40:14.409Z,1008.44
2018-07-08T01:40:54.928Z,1008.44
2018-07-08T01:41:35.437Z,1008.44
2018-07-08T01:42:15.968Z,1008.42
2018-07-08T01:42:56.493Z,1008.39
2018-07-08T01:43:37.009Z,1008.39
2018-07-08T01:44:17.557Z,1008.4
2018-07-08T01:44:58.059Z,1008.37
2018-07-08T01:45:38.601Z,1008.43
2018-07-08T01:46:19.126Z,1008.41
2018-07-08T01:46:59.655Z,1008.35
2018-07-08T01:47:40.171Z,1008.39
2018-07-08T01:48:20.690Z,1008.38
2018-07-08T01:49:01.219Z,1008.39
2018-07-08T01:49:41.720Z,1008.42
2018-07-08T01:50:22.243Z,1008.41
2018-07-08T01:51:02.772Z,1008.39
2018-07-08T01:51:43.306Z,1008.36
2018-07-08T01:52:23.830Z,1008.41
2018-07-08T01:53:04.381Z,1008.41
2018-07-08T01:53:44.892Z,1008.4
2018-07-08T01:54:25.429Z,1008.39
2018-07-08T01:55:05.954Z,1008.39
2018-07-08T01:55:46.470Z,1008.35
2018-07-08T01:56:27.004Z,1008.38
2018-07-08T01:57:07.518Z,1008.38
2018-07-08T01:57:48.038Z,1008.42
2018-07-08T01:58:28.569Z,1008.37
2018-07-08T01:59:09.089Z,1008.4
2018-07-08T01:59:49.606Z,1008.43
2018-07-08T02:00:30.131Z,1008.41
2018-07-08T02:01:10.660Z,1008.44
2018-07-08T02:01:51.192Z,1008.4
2018-07-08T02:02:31.719Z,1008.43
2018-07-08T02:03:12.239Z,1008.42
2018-07-08T02:03:52.759Z,1008.41
2018-07-08T02:04:33.283Z,1008.39
2018-07-08T02:05:13.809Z,1008.38
2018-07-08T02:05:54.326Z,1008.44
2018-07-08T02:06:34.872Z,1008.4
2018-07-08T02:07:15.394Z,1008.39
2018-07-08T02:07:55.913Z,1008.4
2018-07-08T02:08:36.447Z,1008.38
2018-07-08T02:09:16.972Z,1008.35
2018-07-08T02:09:57.490Z,1008.37
2018-07-08T02:10:38.000Z,1008.36
2018-07-08T02:11:18.534Z,1008.35
2018-07-08T02:11:59.054Z,1008.36
2018-07-08T02:12:39.578Z,1008.37
2018-07-08T02:13:20.090Z,1008.34
2018-07-08T02:14:00.627Z,1008.35
2018-07-08T02:14:41.138Z,1008.37
2018-07-08T02:15:21.668Z,1008.4
2018-07-08T02:16:02.182Z,1008.38
2018-07-08T02:16:42.713Z,1008.38
2018-07-08T02:17:23.216Z,1008.4
2018-07-08T02:18:03.753Z,1008.46
2018-07-08T02:18:44.280Z,1008.47
2018-07-08T02:19:24.804Z,1008.45
2018-07-08T02:20:05.322Z,1008.44
2018-07-08T02:20:45.837Z,1008.45
2018-07-08T02:21:26.360Z,1008.43
2018-07-08T02:22:06.882Z,1008.44
2018-07-08T02:22:47.403Z,1008.44
2018-07-08T02:23:27.933Z,1008.43
2018-07-08T02:24:08.444Z,1008.49
2018-07-08T02:24:48.972Z,1008.46
2018-07-08T02:25:29.513Z,1008.39
2018-07-08T02:26:10.038Z,1008.45
2018-07-08T02:26:50.559Z,1008.47
2018-07-08T02:27:31.087Z,1008.43
2018-07-08T02:28:11.606Z,1008.46
2018-07-08T02:28:52.137Z,1008.45
2018-07-08T02:29:32.660Z,1008.42
2018-07-08T02:30:13.182Z,1008.49
2018-07-08T02:30:53.709Z,1008.48
2018-07-08T02:31:35.229Z,1008.45
2018-07-08T02:32:15.754Z,1008.46
2018-07-08T02:32:56.310Z,1008.48
2018-07-08T02:33:36.832Z,1008.44
2018-07-08T02:34:17.357Z,1008.42
2018-07-08T02:34:57.881Z,1008.44
2018-07-08T02:35:38.400Z,1008.46
2018-07-08T02:36:18.925Z,1008.49
2018-07-08T02:36:59.449Z,1008.49
2018-07-08T02:37:39.981Z,1008.44
2018-07-08T02:38:20.512Z,1008.47
2018-07-08T02:39:01.036Z,1008.44
2018-07-08T02:39:41.562Z,1008.41
2018-07-08T02:40:22.104Z,1008.39
2018-07-08T02:41:02.618Z,1008.38
2018-07-08T02:41:43.135Z,1008.36
2018-07-08T02:42:23.670Z,1008.39
2018-07-08T02:43:04.186Z,1008.42
2018-07-08T02:43:44.712Z,1008.38
2018-07-08T02:44:25.235Z,1008.38
2018-07-08T02:45:05.760Z,1008.4
2018-07-08T02:45:46.284Z,1008.39
2018-07-08T02:46:26.811Z,1008.41
2018-07-08T02:47:07.332Z,1008.39
2018-07-08T02:47:47.848Z,1008.38
2018-07-08T02:48:28.379Z,1008.4
2018-07-08T02:49:08.901Z,1008.42
2018-07-08T02:49:49.428Z,1008.4
2018-07-08T02:50:29.958Z,1008.42
2018-07-08T02:51:11.335Z,1008.38
2018-07-08T02:51:51.843Z,1008.43
2018-07-08T02:52:32.365Z,1008.42
2018-07-08T02:53:12.882Z,1008.44
2018-07-08T02:53:53.425Z,1008.43
2018-07-08T02:54:33.939Z,1008.43
2018-07-08T02:55:14.465Z,1008.42
2018-07-08T02:55:54.980Z,1008.43
2018-07-08T02:56:35.500Z,1008.44
2018-07-08T02:57:16.038Z,1008.47
2018-07-08T02:57:56.558Z,1008.5
2018-07-08T02:58:37.101Z,1008.48
2018-07-08T02:59:17.694Z,1008.49
2018-07-08T02:59:58.223Z,1008.49
2018-07-08T03:00:38.756Z,1008.5
2018-07-08T03:01:19.281Z,1008.45
2018-07-08T03:01:59.804Z,1008.47
2018-07-08T03:02:40.335Z,1008.46
2018-07-08T03:03:20.921Z,1008.47
2018-07-08T03:04:01.438Z,1008.49
2018-07-08T03:04:41.962Z,1008.45
2018-07-08T03:05:22.483Z,1008.47
2018-07-08T03:06:03.018Z,1008.44
2018-07-08T03:06:43.537Z,1008.45
2018-07-08T03:07:24.058Z,1008.46
2018-07-08T03:08:04.575Z,1008.42
2018-07-08T03:08:45.095Z,1008.43
2018-07-08T03:09:25.613Z,1008.41
2018-07-08T03:10:06.129Z,1008.46
2018-07-08T03:10:46.651Z,1008.4
2018-07-08T03:11:27.171Z,1008.42
2018-07-08T03:12:07.724Z,1008.44
2018-07-08T03:12:48.245Z,1008.4
2018-07-08T03:13:28.773Z,1008.38
2018-07-08T03:14:09.296Z,1008.41
2018-07-08T03:14:49.811Z,1008.38
2018-07-08T03:15:30.326Z,1008.45
2018-07-08T03:16:10.882Z,1008.43
2018-07-08T03:16:51.385Z,1008.46
2018-07-08T03:17:31.911Z,1008.43
2018-07-08T03:18:12.441Z,1008.46
2018-07-08T03:18:52.972Z,1008.44
2018-07-08T03:19:33.480Z,1008.46
2018-07-08T03:20:14.010Z,1008.46
2018-07-08T03:20:54.538Z,1008.45
2018-07-08T03:21:35.065Z,1008.42
2018-07-08T03:22:15.596Z,1008.48
2018-07-08T03:22:56.116Z,1008.44
2018-07-08T03:23:36.637Z,1008.45
2018-07-08T03:24:17.160Z,1008.44
2018-07-08T03:24:57.681Z,1008.41
2018-07-08T03:25:38.205Z,1008.4
2018-07-08T03:26:18.742Z,1008.44
2018-07-08T03:26:59.251Z,1008.42
2018-07-08T03:27:39.809Z,1008.41
2018-07-08T03:28:20.338Z,1008.39
2018-07-08T03:29:00.869Z,1008.4
2018-07-08T03:29:41.380Z,1008.42
2018-07-08T03:30:21.909Z,1008.42
2018-07-08T03:31:02.436Z,1008.42
2018-07-08T03:31:42.959Z,1008.46
2018-07-08T03:32:23.473Z,1008.45
2018-07-08T03:33:04.012Z,1008.44
2018-07-08T03:33:44.533Z,1008.43
2018-07-08T03:34:25.057Z,1008.45
2018-07-08T03:35:05.585Z,1008.48
2018-07-08T03:35:46.103Z,1008.51
2018-07-08T03:36:26.643Z,1008.49
2018-07-08T03:37:07.163Z,1008.48
2018-07-08T03:37:47.687Z,1008.5
2018-07-08T03:38:28.208Z,1008.49
2018-07-08T03:39:08.739Z,1008.51
2018-07-08T03:39:49.250Z,1008.51
2018-07-08T03:40:29.921Z,1008.54
2018-07-08T03:41:10.442Z,1008.56
2018-07-08T03:41:50.963Z,1008.56
2018-07-08T03:42:31.480Z,1008.56
2018-07-08T03:43:12.009Z,1008.58
2018-07-08T03:43:52.536Z,1008.58
2018-07-08T03:44:33.062Z,1008.6
2018-07-08T03:45:13.575Z,1008.57
2018-07-08T03:45:54.766Z,1008.58
2018-07-08T03:46:35.281Z,1008.59
2018-07-08T03:47:15.803Z,1008.65
2018-07-08T03:47:56.326Z,1008.68
2018-07-08T03:48:36.842Z,1008.63
2018-07-08T03:49:17.369Z,1008.64
2018-07-08T03:49:58.629Z,1008.62
2018-07-08T03:50:39.154Z,1008.62
2018-07-08T03:51:19.674Z,1008.62
2018-07-08T03:52:00.176Z,1008.64
2018-07-08T03:52:40.704Z,1008.61
2018-07-08T03:53:21.296Z,1008.64
2018-07-08T03:54:01.815Z,1008.64
2018-07-08T03:54:42.331Z,1008.66
2018-07-08T03:55:22.840Z,1008.65
2018-07-08T03:56:03.373Z,1008.65
2018-07-08T03:56:43.921Z,1008.65
2018-07-08T03:57:24.445Z,1008.64
2018-07-08T03:58:04.975Z,1008.64
2018-07-08T03:58:45.489Z,1008.61
2018-07-08T03:59:26.015Z,1008.62
2018-07-08T04:00:06.547Z,1008.66
2018-07-08T04:00:47.064Z,1008.63
2018-07-08T04:01:27.578Z,1008.61
2018-07-08T04:02:08.202Z,1008.59
2018-07-08T04:02:48.776Z,1008.58
2018-07-08T04:03:29.301Z,1008.59
2018-07-08T04:04:09.845Z,1008.6
2018-07-08T04:04:50.360Z,1008.6
2018-07-08T04:05:30.878Z,1008.61
2018-07-08T04:06:11.402Z,1008.61
2018-07-08T04:06:51.919Z,1008.56
2018-07-08T04:07:32.445Z,1008.57
2018-07-08T04:08:12.965Z,1008.56
2018-07-08T04:08:53.487Z,1008.62
2018-07-08T04:09:34.004Z,1008.61
2018-07-08T04:10:14.532Z,1008.51
2018-07-08T04:10:55.069Z,1008.56
2018-07-08T04:11:35.580Z,1008.56
2018-07-08T04:12:16.105Z,1008.52
2018-07-08T04:12:56.635Z,1008.52
2018-07-08T04:13:37.171Z,1008.57
2018-07-08T04:14:17.698Z,1008.63
2018-07-08T04:14:58.228Z,1008.58
2018-07-08T04:15:38.734Z,1008.58
2018-07-08T04:16:19.262Z,1008.59
2018-07-08T04:16:59.790Z,1008.55
2018-07-08T04:17:40.306Z,1008.61
2018-07-08T04:18:20.825Z,1008.58
2018-07-08T04:19:01.347Z,1008.61
2018-07-08T04:19:41.876Z,1008.59
2018-07-08T04:20:22.401Z,1008.61
2018-07-08T04:21:02.927Z,1008.62
2018-07-08T04:21:43.447Z,1008.61
2018-07-08T04:22:23.964Z,1008.6
2018-07-08T04:23:04.483Z,1008.56
2018-07-08T04:23:45.012Z,1008.57
2018-07-08T04:24:25.541Z,1008.6
2018-07-08T04:25:06.067Z,1008.55
2018-07-08T04:25:46.709Z,1008.53
2018-07-08T04:26:27.221Z,1008.62
2018-07-08T04:27:07.743Z,1008.59
2018-07-08T04:27:48.257Z,1008.62
2018-07-08T04:28:28.779Z,1008.62
2018-07-08T04:29:09.317Z,1008.62
2018-07-08T04:29:49.828Z,1008.6
2018-07-08T04:30:30.455Z,1008.64
2018-07-08T04:31:10.902Z,1008.59
2018-07-08T04:31:51.459Z,1008.61
2018-07-08T04:32:31.978Z,1008.64
2018-07-08T04:33:12.518Z,1008.62
2018-07-08T04:33:53.049Z,1008.64
2018-07-08T04:34:33.569Z,1008.63
2018-07-08T04:35:14.121Z,1008.66
2018-07-08T04:35:54.641Z,1008.67
2018-07-08T04:36:35.159Z,1008.71
2018-07-08T04:37:15.698Z,1008.69
2018-07-08T04:37:56.210Z,1008.7
2018-07-08T04:38:36.733Z,1008.71
2018-07-08T04:39:17.274Z,1008.71
2018-07-08T04:39:57.795Z,1008.7
2018-07-08T04:40:38.313Z,1008.7
2018-07-08T04:41:18.853Z,1008.73
2018-07-08T04:41:59.374Z,1008.76
2018-07-08T04:42:39.903Z,1008.78
2018-07-08T04:43:20.436Z,1008.81
2018-07-08T04:44:00.951Z,1008.84
2018-07-08T04:44:41.480Z,1008.89
2018-07-08T04:45:22.009Z,1008.95
2018-07-08T04:46:02.525Z,1008.88
2018-07-08T04:46:43.056Z,1008.81
2018-07-08T04:47:23.578Z,1008.76
2018-07-08T04:48:04.115Z,1008.68
2018-07-08T04:48:44.631Z,1008.72
2018-07-08T04:49:25.155Z,1008.78
2018-07-08T04:50:05.673Z,1008.75
2018-07-08T04:50:46.177Z,1008.82
2018-07-08T04:51:26.736Z,1008.82
2018-07-08T04:52:07.251Z,1008.75
2018-07-08T04:52:47.790Z,1008.77
2018-07-08T04:53:28.314Z,1008.73
2018-07-08T04:54:08.838Z,1008.74
2018-07-08T04:54:49.350Z,1008.77
2018-07-08T04:55:29.872Z,1008.83
2018-07-08T04:56:10.390Z,1008.8
2018-07-08T04:56:50.916Z,1008.83
2018-07-08T04:57:31.434Z,1008.81
2018-07-08T04:58:11.971Z,1008.78
2018-07-08T04:58:52.495Z,1008.81
2018-07-08T04:59:33.024Z,1008.81
2018-07-08T05:00:13.555Z,1008.85
2018-07-08T05:00:54.116Z,1008.81
2018-07-08T05:01:34.624Z,1008.82
2018-07-08T05:02:15.162Z,1008.85
2018-07-08T05:02:55.681Z,1008.85
2018-07-08T05:03:36.202Z,1008.84
2018-07-08T05:04:16.726Z,1008.9
2018-07-08T05:04:57.250Z,1008.88
2018-07-08T05:05:37.771Z,1008.88
2018-07-08T05:06:18.283Z,1008.88
2018-07-08T05:06:58.827Z,1008.9
2018-07-08T05:07:39.355Z,1008.91
2018-07-08T05:08:19.876Z,1008.91
2018-07-08T05:09:00.393Z,1008.93
2018-07-08T05:09:40.941Z,1008.91
2018-07-08T05:10:21.464Z,1008.92
2018-07-08T05:11:02.014Z,1008.85
2018-07-08T05:11:42.539Z,1008.91
2018-07-08T05:12:23.064Z,1008.93
2018-07-08T05:13:03.581Z,1008.93
2018-07-08T05:13:44.114Z,1008.95
2018-07-08T05:14:24.643Z,1008.95
2018-07-08T05:15:05.157Z,1008.94
2018-07-08T05:15:45.681Z,1008.96
2018-07-08T05:16:26.217Z,1008.89
2018-07-08T05:17:06.731Z,1008.95
2018-07-08T05:17:47.259Z,1008.94
2018-07-08T05:18:27.822Z,1008.98
2018-07-08T05:19:08.343Z,1008.96
2018-07-08T05:19:48.891Z,1009.02
2018-07-08T05:20:29.407Z,1008.97
2018-07-08T05:21:09.933Z,1008.97
2018-07-08T05:21:50.442Z,1009.02
2018-07-08T05:22:30.962Z,1009.07
2018-07-08T05:23:11.506Z,1009.03
2018-07-08T05:23:52.019Z,1009.07
2018-07-08T05:24:32.537Z,1009.06
2018-07-08T05:25:13.064Z,1009.05
2018-07-08T05:25:53.594Z,1009.07
2018-07-08T05:26:34.084Z,1009.13
2018-07-08T05:27:14.614Z,1009.05
2018-07-08T05:27:55.143Z,1009.01
2018-07-08T05:28:35.661Z,1009.03
2018-07-08T05:29:16.176Z,1009.03
2018-07-08T05:29:56.759Z,1009.01
2018-07-08T05:30:37.221Z,1009
2018-07-08T05:31:17.742Z,1009.01
2018-07-08T05:31:58.265Z,1008.99
2018-07-08T05:32:38.791Z,1009.05
2018-07-08T05:33:19.322Z,1009.05
2018-07-08T05:33:59.841Z,1009.09
2018-07-08T05:34:40.361Z,1009.01
2018-07-08T05:35:20.895Z,1009.04
2018-07-08T05:36:01.415Z,1009.01
2018-07-08T05:36:41.941Z,1009.01
2018-07-08T05:37:22.469Z,1009.05
2018-07-08T05:38:02.999Z,1009.03
2018-07-08T05:38:43.500Z,1008.97
2018-07-08T05:39:24.026Z,1009.02
2018-07-08T05:40:05.437Z,1009
2018-07-08T05:40:45.967Z,1009.01
2018-07-08T05:41:26.553Z,1009.02
2018-07-08T05:42:07.062Z,1008.98
2018-07-08T05:42:47.583Z,1008.99
2018-07-08T05:43:28.134Z,1008.99
2018-07-08T05:44:08.660Z,1009.02
2018-07-08T05:44:49.182Z,1009.03
2018-07-08T05:45:29.707Z,1009
2018-07-08T05:46:10.237Z,1009.04
2018-07-08T05:46:50.762Z,1009.05
2018-07-08T05:47:31.277Z,1009.07
2018-07-08T05:48:11.792Z,1009.07
2018-07-08T05:48:52.319Z,1009.07
2018-07-08T05:49:32.837Z,1009.14
2018-07-08T05:50:13.429Z,1009.13
2018-07-08T05:50:53.978Z,1009.08
2018-07-08T05:51:34.496Z,1009.11
2018-07-08T05:52:15.060Z,1009.11
2018-07-08T05:52:55.603Z,1009.13
2018-07-08T05:53:36.136Z,1009.13
2018-07-08T05:54:16.663Z,1009.17
2018-07-08T05:54:57.202Z,1009.16
2018-07-08T05:55:37.739Z,1009.18
2018-07-08T05:56:18.301Z,1009.12
2018-07-08T05:58:11.396Z,1009.17
2018-07-08T05:58:51.914Z,1009.16
2018-07-08T05:59:32.451Z,1009.21
2018-07-08T06:00:12.996Z,1009.2
2018-07-08T06:00:53.499Z,1009.23
2018-07-08T06:01:34.113Z,1009.25
2018-07-08T06:02:15.300Z,1009.25
2018-07-08T06:02:55.814Z,1009.28
2018-07-08T06:03:36.383Z,1009.25
2018-07-08T06:04:16.883Z,1009.23
2018-07-08T06:04:57.461Z,1009.23
2018-07-08T06:05:37.995Z,1009.22
2018-07-08T06:06:18.499Z,1009.23
2018-07-08T06:06:59.017Z,1009.27
2018-07-08T06:07:39.555Z,1009.22
2018-07-08T06:08:20.070Z,1009.22
2018-07-08T06:09:00.607Z,1009.2
2018-07-08T06:09:41.121Z,1009.22
2018-07-08T06:10:21.652Z,1009.27
2018-07-08T06:11:02.787Z,1009.24
2018-07-08T06:11:43.328Z,1009.26
2018-07-08T06:12:23.841Z,1009.29
2018-07-08T06:13:04.356Z,1009.23
2018-07-08T06:13:44.879Z,1009.24
2018-07-08T06:14:25.424Z,1009.21
2018-07-08T06:15:06.008Z,1009.22
2018-07-08T06:15:46.485Z,1009.2
2018-07-08T06:16:26.996Z,1009.19
2018-07-08T06:17:07.515Z,1009.22
2018-07-08T06:17:48.013Z,1009.25
2018-07-08T06:18:28.513Z,1009.21
2018-07-08T06:19:09.034Z,1009.19
2018-07-08T06:19:49.557Z,1009.2
2018-07-08T06:20:30.077Z,1009.23
2018-07-08T06:21:10.608Z,1009.25
2018-07-08T06:21:51.102Z,1009.24
2018-07-08T06:22:31.731Z,1009.22
2018-07-08T06:23:12.345Z,1009.21
2018-07-08T06:23:52.786Z,1009.23
2018-07-08T06:24:33.394Z,1009.18
2018-07-08T06:25:13.908Z,1009.24
2018-07-08T06:25:54.535Z,1009.23
2018-07-08T06:26:35.042Z,1009.2
2018-07-08T06:27:15.523Z,1009.25
2018-07-08T06:27:56.018Z,1009.2
2018-07-08T06:28:36.535Z,1009.21
2018-07-08T06:29:17.084Z,1009.19
2018-07-08T06:29:57.606Z,1009.2
2018-07-08T06:30:38.138Z,1009.23
2018-07-08T06:31:18.710Z,1009.22
2018-07-08T06:31:59.209Z,1009.21
2018-07-08T06:32:39.712Z,1009.21
2018-07-08T06:33:20.173Z,1009.22
2018-07-08T06:34:00.743Z,1009.22
2018-07-08T06:34:41.212Z,1009.18
2018-07-08T06:35:21.707Z,1009.12
2018-07-08T06:36:02.220Z,1009.17
2018-07-08T06:36:42.742Z,1009.19
2018-07-08T06:37:23.273Z,1009.14
2018-07-08T06:38:03.822Z,1009.15
2018-07-08T06:38:44.289Z,1009.21
2018-07-08T06:39:24.846Z,1009.2
2018-07-08T06:40:05.350Z,1009.19
2018-07-08T06:40:45.840Z,1009.21
2018-07-08T06:41:26.363Z,1009.19
2018-07-08T06:42:06.871Z,1009.16
2018-07-08T06:42:47.388Z,1009.18
2018-07-08T06:43:27.946Z,1009.21
2018-07-08T06:44:09.246Z,1009.23
2018-07-08T06:44:49.732Z,1009.19
2018-07-08T06:45:30.333Z,1009.23
2018-07-08T06:46:10.813Z,1009.18
2018-07-08T06:46:51.304Z,1009.22
2018-07-08T06:47:31.835Z,1009.19
2018-07-08T06:48:12.970Z,1009.2
2018-07-08T06:48:53.472Z,1009.28
2018-07-08T06:49:34.002Z,1009.19
2018-07-08T06:50:14.513Z,1009.23
2018-07-08T06:50:55.064Z,1009.16
2018-07-08T06:51:35.609Z,1009.22
2018-07-08T06:52:16.104Z,1009.24
2018-07-08T06:52:56.602Z,1009.19
2018-07-08T06:53:37.114Z,1009.24
2018-07-08T06:54:17.636Z,1009.22
2018-07-08T06:54:58.159Z,1009.24
2018-07-08T06:55:38.684Z,1009.24
2018-07-08T06:56:19.219Z,1009.26
2018-07-08T06:56:59.743Z,1009.22
2018-07-08T06:57:40.279Z,1009.25
2018-07-08T06:58:20.826Z,1009.21
2018-07-08T06:59:01.395Z,1009.2
2018-07-08T06:59:41.908Z,1009.19
2018-07-08T07:00:22.434Z,1009.22
2018-07-08T07:01:02.952Z,1009.25
2018-07-08T07:01:43.458Z,1009.23
2018-07-08T07:02:23.968Z,1009.23
2018-07-08T07:03:04.455Z,1009.24
2018-07-08T07:03:44.986Z,1009.24
2018-07-08T07:04:25.510Z,1009.23
2018-07-08T07:05:06.049Z,1009.22
2018-07-08T07:05:46.572Z,1009.25
2018-07-08T07:06:27.120Z,1009.22
2018-07-08T07:07:07.658Z,1009.25
2018-07-08T07:07:48.340Z,1009.29
2018-07-08T07:08:28.963Z,1009.25
2018-07-08T07:09:09.449Z,1009.28
2018-07-08T07:09:49.967Z,1009.25
2018-07-08T07:10:30.523Z,1009.28
2018-07-08T07:11:11.044Z,1009.23
2018-07-08T07:11:51.574Z,1009.28
2018-07-08T07:12:32.113Z,1009.26
2018-07-08T07:13:13.333Z,1009.28
2018-07-08T07:13:53.862Z,1009.25
2018-07-08T07:14:34.371Z,1009.22
2018-07-08T07:15:14.894Z,1009.2
2018-07-08T07:15:55.430Z,1009.21
2018-07-08T07:16:36.029Z,1009.23
2018-07-08T07:17:16.553Z,1009.19
2018-07-08T07:17:57.071Z,1009.22
2018-07-08T07:18:37.596Z,1009.21
2018-07-08T07:19:18.126Z,1009.17
2018-07-08T07:19:58.648Z,1009.19
2018-07-08T07:20:39.163Z,1009.19
2018-07-08T07:21:19.699Z,1009.19
2018-07-08T07:22:00.233Z,1009.13
2018-07-08T07:22:40.756Z,1009.16
2018-07-08T07:23:21.281Z,1009.15
2018-07-08T07:24:01.828Z,1009.23
2018-07-08T07:24:42.339Z,1009.2
2018-07-08T07:25:22.920Z,1009.21
2018-07-08T07:26:03.476Z,1009.18
2018-07-08T07:26:43.982Z,1009.18
2018-07-08T07:27:24.486Z,1009.19
2018-07-08T07:29:43.045Z,1009.17
2018-07-08T07:30:23.524Z,1009.17
2018-07-08T07:31:04.063Z,1009.17
2018-07-08T07:31:44.652Z,1009.17
2018-07-08T07:32:25.185Z,1009.15
2018-07-08T07:33:05.726Z,1009.15
2018-07-08T07:33:46.235Z,1009.16
2018-07-08T07:34:26.787Z,1009.16
2018-07-08T07:35:07.302Z,1009.17
2018-07-08T07:35:47.817Z,1009.12
2018-07-08T07:36:28.388Z,1009.2
2018-07-08T07:37:09.037Z,1009.19
2018-07-08T07:37:49.576Z,1009.18
2018-07-08T07:38:30.079Z,1009.23
2018-07-08T07:39:10.550Z,1009.14
2018-07-08T07:39:51.107Z,1009.18
2018-07-08T07:40:31.610Z,1009.19
2018-07-08T07:41:12.083Z,1009.14
2018-07-08T07:41:52.587Z,1009.18
2018-07-08T07:42:33.102Z,1009.11
2018-07-08T07:43:13.611Z,1009.16
2018-07-08T07:43:54.131Z,1009.15
2018-07-08T07:44:34.717Z,1009.12
2018-07-08T07:45:15.249Z,1009.14
2018-07-08T07:45:55.820Z,1009.15
2018-07-08T07:46:36.342Z,1009.16
2018-07-08T07:47:16.914Z,1009.17
2018-07-08T07:47:57.443Z,1009.12
2018-07-08T07:48:37.954Z,1009.14
2018-07-08T07:49:18.481Z,1009.14
2018-07-08T07:49:58.980Z,1009.13
2018-07-08T07:50:40.341Z,1009.11
2018-07-08T07:51:21.043Z,1009.16
2018-07-08T07:52:01.378Z,1009.11
2018-07-08T07:52:41.867Z,1009.06
2018-07-08T07:53:22.360Z,1009.08
2018-07-08T07:54:02.855Z,1009.13
2018-07-08T07:54:43.356Z,1009.11
2018-07-08T07:55:23.934Z,1009.09
2018-07-08T07:56:04.421Z,1009.08
2018-07-08T07:56:44.969Z,1009.06
2018-07-08T07:57:25.453Z,1009.13
2018-07-08T07:58:05.986Z,1009.08
2018-07-08T07:58:46.469Z,1009.07
2018-07-08T07:59:27.017Z,1009.04
2018-07-08T08:00:07.555Z,1009.08
2018-07-08T08:00:48.103Z,1009.1
2018-07-08T08:01:28.804Z,1009.03
2018-07-08T08:02:09.396Z,1009.06
2018-07-08T08:02:49.882Z,1009.06
2018-07-08T08:03:30.428Z,1009.05
2018-07-08T08:04:11.000Z,1009.04
2018-07-08T08:04:51.542Z,1009.13
2018-07-08T08:05:32.017Z,1009.08
2018-07-08T08:06:12.550Z,1009.06
2018-07-08T08:06:53.053Z,1009.13
2018-07-08T08:07:33.502Z,1009.14
2018-07-08T08:08:14.088Z,1009.11
2018-07-08T08:08:54.620Z,1009.1
2018-07-08T08:09:35.121Z,1009.1
2018-07-08T08:10:15.750Z,1009.11
2018-07-08T08:10:56.228Z,1009.08
2018-07-08T08:11:36.804Z,1009.08
2018-07-08T08:12:17.259Z,1009.04
2018-07-08T08:12:57.794Z,1009.03
2018-07-08T08:13:38.359Z,1009.06
2018-07-08T08:14:18.834Z,1009.05